createdAt,value
2023-03-11T00:02:10.154Z,99840.38
2023-03-11T00:04:37.164Z,99823.69
2023-03-11T00:07:06.154Z,99855.97
2023-03-11T00:09:34.830Z,99840.72
2023-03-11T00:12:02.121Z,99842.34
2023-03-11T00:14:29.188Z,99781.03
2023-03-11T00:16:56.485Z,99829.63
2023-03-11T00:19:23.127Z,99853.91
2023-03-11T00:21:49.757Z,99853.28
2023-03-11T00:24:16.385Z,99850.31
2023-03-11T00:26:44.365Z,99865.16
2023-03-11T00:29:10.957Z,99855.34
2023-03-11T00:31:37.616Z,99862.94
2023-03-11T00:34:06.736Z,99825.84
2023-03-11T00:36:33.747Z,99826.22
2023-03-11T00:39:01.745Z,99868.59
2023-03-11T00:41:28.548Z,99876.69
2023-03-11T00:43:56.598Z,99886.25
2023-03-11T00:46:23.295Z,99888.66
2023-03-11T00:48:50.662Z,99758.50
2023-03-11T00:51:17.519Z,99884.09
2023-03-11T00:53:44.480Z,99895.00
2023-03-11T00:56:13.005Z,99889.31
2023-03-11T00:58:43.006Z,99888.31
2023-03-11T01:01:12.965Z,99886.16
2023-03-11T01:03:40.058Z,99750.25
2023-03-11T01:06:06.854Z,99900.56
2023-03-11T01:08:34.008Z,99841.75
2023-03-11T01:11:01.227Z,99902.16
2023-03-11T01:13:29.248Z,99909.97
2023-03-11T01:15:56.464Z,99917.47
2023-03-11T01:18:24.656Z,99915.41
2023-03-11T01:20:52.191Z,99915.97
2023-03-11T01:23:20.500Z,99919.41
2023-03-11T01:25:47.993Z,99903.66
2023-03-11T01:28:14.573Z,99920.00
2023-03-11T01:30:42.854Z,99919.50
2023-03-11T01:33:15.047Z,99910.59
2023-03-11T01:35:43.898Z,99925.63
2023-03-11T01:38:11.609Z,99927.41
2023-03-11T01:40:41.076Z,99927.88
2023-03-11T01:43:25.012Z,99934.94
2023-03-11T01:46:11.853Z,99897.59
2023-03-11T01:48:38.826Z,99941.81
2023-03-11T01:51:07.454Z,99940.59
2023-03-11T01:53:35.350Z,99931.59
2023-03-11T01:56:03.761Z,99937.91
2023-03-11T01:58:34.297Z,99945.19
2023-03-11T02:01:02.444Z,99946.72
2023-03-11T02:03:31.943Z,99924.84
2023-03-11T02:06:02.599Z,99913.50
2023-03-11T02:08:31.731Z,99949.44
2023-03-11T02:10:58.502Z,99947.88
2023-03-11T02:13:25.336Z,99950.47
2023-03-11T02:15:52.409Z,99961.50
2023-03-11T02:18:20.390Z,99933.84
2023-03-11T02:20:54.457Z,99937.09
2023-03-11T02:23:26.968Z,99964.31
2023-03-11T02:26:04.849Z,99968.47
2023-03-11T02:28:34.924Z,99955.84
2023-03-11T02:31:01.930Z,99961.72
2023-03-11T02:33:32.214Z,99932.72
2023-03-11T02:35:59.718Z,99968.59
2023-03-11T02:38:26.357Z,99969.81
2023-03-11T02:40:56.481Z,99965.16
2023-03-11T02:43:31.813Z,99962.81
2023-03-11T02:46:00.675Z,99970.16
2023-03-11T02:48:30.125Z,99974.53
2023-03-11T02:50:58.655Z,99976.75
2023-03-11T02:53:28.773Z,99982.78
2023-03-11T02:55:55.448Z,99980.28
2023-03-11T02:58:22.144Z,99985.59
2023-03-11T03:00:51.318Z,99946.31
2023-03-11T03:03:20.155Z,99977.63
2023-03-11T03:05:47.138Z,99987.44
2023-03-11T03:08:13.808Z,99998.06
2023-03-11T03:10:41.563Z,100004.56
2023-03-11T03:13:08.215Z,99983.84
2023-03-11T03:15:35.072Z,99976.41
2023-03-11T03:18:01.665Z,99999.16
2023-03-11T03:20:30.096Z,100001.22
2023-03-11T03:23:00.955Z,99948.16
2023-03-11T03:25:30.673Z,99972.34
2023-03-11T03:28:01.202Z,99967.66
2023-03-11T03:30:30.008Z,99970.19
2023-03-11T03:32:56.713Z,99995.72
2023-03-11T03:35:23.718Z,100002.59
2023-03-11T03:38:17.664Z,100002.81
2023-03-11T03:40:49.044Z,100005.56
2023-03-11T03:43:18.535Z,100005.66
2023-03-11T03:45:55.475Z,100012.16
2023-03-11T03:48:22.703Z,100020.63
2023-03-11T03:50:49.284Z,99982.78
2023-03-11T03:53:19.013Z,100026.28
2023-03-11T03:55:46.614Z,99997.47
2023-03-11T03:58:13.377Z,100029.44
2023-03-11T04:00:40.133Z,99986.63
2023-03-11T04:03:07.165Z,100037.09
2023-03-11T04:05:46.695Z,100038.38
2023-03-11T04:08:16.651Z,100043.66
2023-03-11T04:10:45.663Z,100041.88
2023-03-11T04:13:12.300Z,100049.09
2023-03-11T04:15:39.405Z,100030.75
2023-03-11T04:18:06.345Z,100055.81
2023-03-11T04:20:32.997Z,99983.25
2023-03-11T04:22:59.584Z,100063.47
2023-03-11T04:25:26.234Z,100066.59
2023-03-11T04:27:54.528Z,100072.13
2023-03-11T04:30:22.072Z,100066.41
2023-03-11T04:32:52.604Z,100071.09
2023-03-11T04:35:19.364Z,100074.28
2023-03-11T04:37:46.045Z,100084.56
2023-03-11T04:40:13.445Z,100056.34
2023-03-11T04:42:40.465Z,100090.19
2023-03-11T04:45:11.130Z,100084.38
2023-03-11T04:47:38.615Z,100091.44
2023-03-11T04:50:06.381Z,100089.00
2023-03-11T04:52:33.067Z,100093.53
2023-03-11T04:54:59.748Z,100098.19
2023-03-11T04:57:26.605Z,100079.25
2023-03-11T04:59:53.184Z,100102.03
2023-03-11T05:02:21.897Z,100082.56
2023-03-11T05:04:55.141Z,100096.84
2023-03-11T05:07:21.871Z,100101.25
2023-03-11T05:09:48.766Z,100097.41
2023-03-11T05:12:15.533Z,100100.84
2023-03-11T05:14:46.638Z,100091.94
2023-03-11T05:17:13.376Z,100097.88
2023-03-11T05:19:41.396Z,100100.63
2023-03-11T05:22:15.362Z,100105.22
2023-03-11T05:24:42.232Z,100102.78
2023-03-11T05:27:08.974Z,100105.59
2023-03-11T05:29:38.029Z,100109.34
2023-03-11T05:32:09.114Z,100116.41
2023-03-11T05:34:36.407Z,100125.13
2023-03-11T05:37:04.458Z,100128.78
2023-03-11T05:39:31.884Z,100129.78
2023-03-11T05:41:58.875Z,100086.31
2023-03-11T05:44:26.541Z,100128.63
2023-03-11T05:46:54.659Z,100138.78
2023-03-11T05:49:21.971Z,100130.53
2023-03-11T05:51:51.512Z,100150.19
2023-03-11T05:54:20.488Z,100125.09
2023-03-11T05:56:50.342Z,100145.91
2023-03-11T05:59:18.150Z,100118.25
2023-03-11T06:01:48.725Z,100140.97
2023-03-11T06:04:18.252Z,100145.41
2023-03-11T06:06:45.265Z,100150.38
2023-03-11T06:09:14.075Z,100147.91
2023-03-11T06:11:43.722Z,100153.94
2023-03-11T06:14:13.077Z,100158.38
2023-03-11T06:16:40.813Z,100158.38
2023-03-11T06:19:09.451Z,100159.19
2023-03-11T06:21:40.955Z,100154.84
2023-03-11T06:24:08.094Z,100154.94
2023-03-11T06:26:34.898Z,100161.03
2023-03-11T06:29:03.329Z,100162.78
2023-03-11T06:31:30.450Z,100164.53
2023-03-11T06:34:03.840Z,100170.56
2023-03-11T06:36:30.553Z,100161.44
2023-03-11T06:38:57.486Z,100178.16
2023-03-11T06:41:25.970Z,100186.66
2023-03-11T06:43:52.673Z,100178.81
2023-03-11T06:46:22.399Z,100191.25
2023-03-11T06:48:50.770Z,100190.69
2023-03-11T06:51:18.607Z,100175.16
2023-03-11T06:53:48.848Z,100185.75
2023-03-11T06:56:15.908Z,100195.75
2023-03-11T06:58:47.516Z,100177.00
2023-03-11T07:01:16.968Z,100207.09
2023-03-11T07:03:46.127Z,100211.97
2023-03-11T07:06:14.814Z,100217.94
2023-03-11T07:08:41.942Z,100226.97
2023-03-11T07:11:12.233Z,100233.34
2023-03-11T07:13:39.139Z,100236.72
2023-03-11T07:16:08.085Z,100242.72
2023-03-11T07:18:36.408Z,100252.78
2023-03-11T07:21:07.253Z,100255.00
2023-03-11T07:23:34.799Z,100253.63
2023-03-11T07:26:01.863Z,100266.06
2023-03-11T07:28:29.021Z,100264.50
2023-03-11T07:30:56.637Z,100268.34
2023-03-11T07:33:23.541Z,100237.09
2023-03-11T07:35:50.335Z,100278.03
2023-03-11T07:38:18.437Z,100281.13
2023-03-11T07:40:45.039Z,100293.03
2023-03-11T07:43:11.763Z,100299.84
2023-03-11T07:45:38.378Z,100288.84
2023-03-11T07:48:05.472Z,100282.06
2023-03-11T07:50:32.062Z,100309.75
2023-03-11T07:52:58.716Z,100232.22
2023-03-11T07:55:26.743Z,100308.09
2023-03-11T07:57:53.529Z,100313.88
2023-03-11T08:00:20.608Z,100309.69
2023-03-11T08:02:47.509Z,100285.72
2023-03-11T08:05:14.357Z,100327.28
2023-03-11T08:07:41.650Z,100321.03
2023-03-11T08:10:09.409Z,100315.56
2023-03-11T08:12:37.616Z,100334.59
2023-03-11T08:15:05.072Z,100339.09
2023-03-11T08:17:31.960Z,100335.16
2023-03-11T08:19:59.046Z,100335.63
2023-03-11T08:22:26.420Z,100320.84
2023-03-11T08:24:53.758Z,100314.88
2023-03-11T08:27:20.526Z,100332.53
2023-03-11T08:29:48.393Z,100330.16
2023-03-11T08:32:15.079Z,100333.06
2023-03-11T08:34:42.252Z,100331.59
2023-03-11T08:37:09.432Z,100333.66
2023-03-11T08:39:36.332Z,100332.72
2023-03-11T08:42:03.325Z,100307.16
2023-03-11T08:44:29.902Z,100330.06
2023-03-11T08:46:58.265Z,100283.41
2023-03-11T08:49:25.100Z,100323.03
2023-03-11T08:51:51.921Z,100321.19
2023-03-11T08:54:19.553Z,100336.00
2023-03-11T08:56:46.405Z,100319.50
2023-03-11T08:59:13.344Z,100349.03
2023-03-11T09:01:40.459Z,100349.03
2023-03-11T09:04:08.543Z,100344.84
2023-03-11T09:06:35.180Z,100343.63
2023-03-11T09:09:01.950Z,100349.75
2023-03-11T09:11:28.579Z,100357.94
2023-03-11T09:13:55.280Z,100358.09
2023-03-11T09:16:23.678Z,100326.84
2023-03-11T09:18:51.635Z,100342.53
2023-03-11T09:21:20.105Z,100349.63
2023-03-11T09:23:47.320Z,100349.81
2023-03-11T09:26:14.952Z,100352.56
2023-03-11T09:28:42.592Z,100338.31
2023-03-11T09:31:09.421Z,100347.88
2023-03-11T09:33:39.371Z,100340.91
2023-03-11T09:36:08.107Z,100344.59
2023-03-11T09:38:36.006Z,100340.00
2023-03-11T09:41:07.977Z,100327.25
2023-03-11T09:43:46.345Z,100328.50
2023-03-11T09:46:31.086Z,100353.06
2023-03-11T09:49:09.543Z,100344.81
2023-03-11T09:51:40.653Z,100349.53
2023-03-11T09:54:12.551Z,100360.41
2023-03-11T09:56:44.351Z,100358.09
2023-03-11T09:59:15.718Z,100359.78
2023-03-11T10:01:44.722Z,100363.28
2023-03-11T10:04:14.997Z,100353.47
2023-03-11T10:06:44.724Z,100358.53
2023-03-11T10:09:29.158Z,100345.97
2023-03-11T10:12:09.790Z,100369.41
2023-03-11T10:14:48.488Z,100367.69
2023-03-11T10:17:23.464Z,100387.16
2023-03-11T10:19:57.237Z,100369.16
2023-03-11T10:22:31.127Z,100390.44
2023-03-11T10:25:09.302Z,100390.63
2023-03-11T10:27:42.616Z,100381.44
2023-03-11T10:30:19.357Z,100394.72
2023-03-11T10:32:52.314Z,100402.59
2023-03-11T10:35:22.415Z,100382.09
2023-03-11T10:37:54.778Z,100395.69
2023-03-11T10:40:30.443Z,100371.81
2023-03-11T10:43:01.417Z,100365.81
2023-03-11T10:45:33.300Z,100386.47
2023-03-11T10:47:59.829Z,100394.88
2023-03-11T10:50:26.467Z,100381.63
2023-03-11T10:53:09.615Z,100409.31
2023-03-11T10:55:45.990Z,100390.38
2023-03-11T10:58:15.355Z,100401.31
2023-03-11T11:00:41.961Z,100406.81
2023-03-11T11:03:20.018Z,100401.84
2023-03-11T11:05:57.732Z,100379.72
2023-03-11T11:08:24.363Z,100368.78
2023-03-11T11:10:56.644Z,100388.03
2023-03-11T11:13:24.680Z,100355.97
2023-03-11T11:15:54.324Z,100354.97
2023-03-11T11:18:24.166Z,100360.72
2023-03-11T11:20:58.206Z,100302.13
2023-03-11T11:23:28.004Z,100360.94
2023-03-11T11:25:58.759Z,100377.56
2023-03-11T11:28:25.917Z,100313.69
2023-03-11T11:30:54.638Z,100357.63
2023-03-11T11:33:24.851Z,100360.25
2023-03-11T11:35:53.354Z,100299.50
2023-03-11T11:38:22.516Z,100358.75
2023-03-11T11:40:49.066Z,100371.72
2023-03-11T11:43:19.651Z,100378.16
2023-03-11T11:45:49.252Z,100374.84
2023-03-11T11:48:22.490Z,100370.19
2023-03-11T11:50:53.707Z,100362.88
2023-03-11T11:53:28.408Z,100374.66
2023-03-11T11:55:55.233Z,100389.84
2023-03-11T11:58:23.190Z,100392.72
2023-03-11T12:01:02.791Z,100267.13
2023-03-11T12:03:57.725Z,100389.97
2023-03-11T12:06:31.335Z,100390.81
2023-03-11T12:09:09.034Z,100378.66
2023-03-11T12:11:42.108Z,100378.66
2023-03-11T12:14:16.948Z,100386.66
2023-03-11T12:16:51.287Z,100370.97
2023-03-11T12:19:24.676Z,100390.75
2023-03-11T12:22:08.397Z,100345.81
2023-03-11T12:24:57.157Z,100380.44
2023-03-11T12:27:27.915Z,100370.28
2023-03-11T12:29:59.664Z,100374.84
2023-03-11T12:32:34.462Z,100383.66
2023-03-11T12:35:02.917Z,100390.00
2023-03-11T12:37:29.546Z,100393.56
2023-03-11T12:39:56.376Z,100328.81
2023-03-11T12:42:24.060Z,100395.78
2023-03-11T12:44:51.519Z,100395.56
2023-03-11T12:47:23.957Z,100393.44
2023-03-11T12:49:52.110Z,100373.56
2023-03-11T12:52:25.532Z,100360.78
2023-03-11T12:55:34.746Z,100395.75
2023-03-11T12:58:28.564Z,100357.53
2023-03-11T13:01:11.308Z,100386.00
2023-03-11T13:03:57.751Z,100380.72
2023-03-11T13:06:42.087Z,100385.22
2023-03-11T13:09:15.063Z,100381.16
2023-03-11T13:11:44.794Z,100378.53
2023-03-11T13:14:26.265Z,100382.00
2023-03-11T13:16:53.505Z,100382.84
2023-03-11T13:19:48.741Z,100384.25
2023-03-11T13:23:03.860Z,100388.94
2023-03-11T13:25:35.110Z,100388.44
2023-03-11T13:28:24.316Z,100343.19
2023-03-11T13:30:56.947Z,100385.66
2023-03-11T13:33:40.566Z,100373.84
2023-03-11T13:36:21.181Z,100378.78
2023-03-11T13:39:08.462Z,100361.69
2023-03-11T13:41:36.780Z,100375.97
2023-03-11T13:44:13.580Z,100347.41
2023-03-11T13:46:42.744Z,100378.22
2023-03-11T13:49:22.005Z,100382.22
2023-03-11T13:51:51.888Z,100375.47
2023-03-11T13:54:32.239Z,100385.53
2023-03-11T13:57:01.497Z,100385.25
2023-03-11T13:59:29.470Z,100367.25
2023-03-11T14:01:57.795Z,100381.34
2023-03-11T14:04:28.032Z,100382.19
2023-03-11T14:06:56.140Z,100382.09
2023-03-11T14:09:25.281Z,100380.03
2023-03-11T14:11:53.103Z,100379.53
2023-03-11T14:14:33.663Z,100381.78
2023-03-11T14:17:01.417Z,100364.88
2023-03-11T14:19:27.956Z,100377.06
2023-03-11T14:21:55.976Z,100392.47
2023-03-11T14:24:24.980Z,100380.88
2023-03-11T14:26:52.992Z,100360.53
2023-03-11T14:29:24.948Z,100374.03
2023-03-11T14:31:51.690Z,100365.06
2023-03-11T14:34:20.013Z,100375.28
2023-03-11T14:36:48.821Z,100381.31
2023-03-11T14:39:26.675Z,100377.72
2023-03-11T14:41:57.074Z,100383.34
2023-03-11T14:44:26.048Z,100382.41
2023-03-11T14:46:59.305Z,100397.69
2023-03-11T14:49:26.508Z,100387.84
2023-03-11T14:51:59.385Z,100390.88
2023-03-11T14:54:30.916Z,100392.16
2023-03-11T14:57:04.177Z,100395.56
2023-03-11T14:59:33.716Z,100396.88
2023-03-11T15:02:26.484Z,100401.75
2023-03-11T15:04:55.160Z,100403.47
2023-03-11T15:07:22.989Z,100391.94
2023-03-11T15:09:51.153Z,100400.38
2023-03-11T15:12:32.324Z,100390.41
2023-03-11T15:14:59.060Z,100365.56
2023-03-11T15:17:42.803Z,100407.19
2023-03-11T15:20:24.090Z,100408.41
2023-03-11T15:22:57.296Z,100407.44
2023-03-11T15:25:26.156Z,100389.00
2023-03-11T15:27:52.958Z,100382.78
2023-03-11T15:30:21.770Z,100405.72
2023-03-11T15:32:49.178Z,100401.22
2023-03-11T15:35:19.558Z,100409.59
2023-03-11T15:37:47.988Z,100406.88
2023-03-11T15:40:22.519Z,100392.53
2023-03-11T15:43:19.106Z,100412.13
2023-03-11T15:45:46.217Z,100414.38
2023-03-11T15:48:14.180Z,100401.66
2023-03-11T15:50:53.215Z,100406.59
2023-03-11T15:53:21.372Z,100397.47
2023-03-11T15:55:48.324Z,100413.31
2023-03-11T15:58:18.453Z,100404.38
2023-03-11T16:00:48.124Z,100402.66
2023-03-11T16:03:14.906Z,100419.03
2023-03-11T16:05:41.644Z,100421.31
2023-03-11T16:08:08.221Z,100420.22
2023-03-11T16:10:35.019Z,100423.13
2023-03-11T16:13:01.612Z,100410.34
2023-03-11T16:15:31.142Z,100428.88
2023-03-11T16:18:01.242Z,100435.69
2023-03-11T16:20:31.181Z,100424.09
2023-03-11T16:22:59.185Z,100429.56
2023-03-11T16:25:28.841Z,100426.94
2023-03-11T16:27:56.557Z,100427.41
2023-03-11T16:30:24.586Z,100427.81
2023-03-11T16:32:52.569Z,100420.97
2023-03-11T16:35:19.452Z,100425.75
2023-03-11T16:37:46.195Z,100415.38
2023-03-11T16:40:15.494Z,100429.06
2023-03-11T16:42:42.500Z,100417.41
2023-03-11T16:45:09.679Z,100424.56
2023-03-11T16:47:36.654Z,100429.03
2023-03-11T16:50:06.086Z,100434.91
2023-03-11T16:52:33.021Z,100427.84
2023-03-11T16:54:59.601Z,100439.88
2023-03-11T16:57:26.409Z,100438.78
2023-03-11T16:59:52.958Z,100439.94
2023-03-11T17:02:19.660Z,100398.31
2023-03-11T17:04:46.241Z,100442.34
2023-03-11T17:07:14.245Z,100442.75
2023-03-11T17:09:41.096Z,100438.75
2023-03-11T17:12:08.302Z,100424.56
2023-03-11T17:14:36.019Z,100396.94
2023-03-11T17:17:02.796Z,100449.44
2023-03-11T17:19:31.069Z,100455.41
2023-03-11T17:21:57.602Z,100458.25
2023-03-11T17:24:25.587Z,100430.31
2023-03-11T17:26:52.372Z,100458.06
2023-03-11T17:29:18.955Z,100447.69
2023-03-11T17:31:45.608Z,100443.19
2023-03-11T17:34:12.149Z,100471.22
2023-03-11T17:36:38.731Z,100441.13
2023-03-11T17:39:05.267Z,100476.50
2023-03-11T17:41:33.164Z,100480.09
2023-03-11T17:43:59.671Z,100449.31
2023-03-11T17:46:26.294Z,100484.66
2023-03-11T17:48:53.162Z,100496.88
2023-03-11T17:51:21.511Z,100475.50
2023-03-11T17:53:49.017Z,100425.88
2023-03-11T17:56:17.877Z,100485.56
2023-03-11T17:58:46.297Z,100489.19
2023-03-11T18:01:14.604Z,100481.69
2023-03-11T18:03:41.218Z,100493.97
2023-03-11T18:06:08.282Z,100474.34
2023-03-11T18:08:35.829Z,100494.28
2023-03-11T18:11:04.716Z,100498.25
2023-03-11T18:13:32.401Z,100493.59
2023-03-11T18:16:02.127Z,100505.38
2023-03-11T18:18:29.757Z,100485.50
2023-03-11T18:21:00.967Z,100509.16
2023-03-11T18:23:27.939Z,100464.47
2023-03-11T18:25:54.444Z,100501.84
2023-03-11T18:28:21.112Z,100424.56
2023-03-11T18:30:47.681Z,100501.59
2023-03-11T18:33:39.043Z,100495.19
2023-03-11T18:36:14.124Z,100494.16
2023-03-11T18:38:41.177Z,100489.41
2023-03-11T18:41:07.823Z,100500.66
2023-03-11T18:43:34.766Z,100468.50
2023-03-11T18:46:01.794Z,100504.03
2023-03-11T18:48:28.474Z,100515.66
2023-03-11T18:50:56.389Z,100513.53
2023-03-11T18:53:23.412Z,100501.06
2023-03-11T18:55:49.979Z,100511.22
2023-03-11T18:58:16.691Z,100466.50
2023-03-11T19:00:43.221Z,100524.06
2023-03-11T19:03:10.284Z,100519.63
2023-03-11T19:05:37.203Z,100512.97
2023-03-11T19:08:05.532Z,100518.59
2023-03-11T19:10:32.116Z,100517.19
2023-03-11T19:12:58.752Z,100510.47
2023-03-11T19:15:25.261Z,100508.97
2023-03-11T19:18:04.366Z,100519.47
2023-03-11T19:20:33.361Z,100498.88
2023-03-11T19:23:00.021Z,100530.50
2023-03-11T19:25:28.240Z,100530.78
2023-03-11T19:27:55.332Z,100537.81
2023-03-11T19:30:22.161Z,100541.38
2023-03-11T19:32:48.948Z,100541.59
2023-03-11T19:35:15.620Z,100439.31
2023-03-11T19:37:42.270Z,100545.50
2023-03-11T19:40:11.548Z,100551.75
2023-03-11T19:42:39.662Z,100555.41
2023-03-11T19:45:07.840Z,100563.31
2023-03-11T19:47:34.347Z,100567.88
2023-03-11T19:50:00.984Z,100566.34
2023-03-11T19:52:28.331Z,100568.34
2023-03-11T19:54:55.022Z,100564.91
2023-03-11T19:57:21.587Z,100550.16
2023-03-11T19:59:49.617Z,100565.47
2023-03-11T20:02:16.268Z,100568.22
2023-03-11T20:04:43.423Z,100567.53
2023-03-11T20:07:10.141Z,100570.13
2023-03-11T20:09:36.744Z,100563.31
2023-03-11T20:12:03.671Z,100570.38
2023-03-11T20:14:30.256Z,100576.63
2023-03-11T20:16:58.241Z,100556.44
2023-03-11T20:19:24.928Z,100578.47
2023-03-11T20:21:51.619Z,100574.53
2023-03-11T20:24:18.456Z,100568.56
2023-03-11T20:26:44.977Z,100571.53
2023-03-11T20:29:11.624Z,100567.44
2023-03-11T20:31:38.565Z,100534.88
2023-03-11T20:34:06.677Z,100571.13
2023-03-11T20:36:34.160Z,100572.13
2023-03-11T20:39:01.146Z,100573.88
2023-03-11T20:41:28.458Z,100575.66
2023-03-11T20:43:56.748Z,100580.66
2023-03-11T20:46:23.834Z,100573.72
2023-03-11T20:48:50.655Z,100502.34
2023-03-11T20:51:19.578Z,100578.31
2023-03-11T20:53:46.497Z,100565.63
2023-03-11T20:56:15.062Z,100566.41
2023-03-11T20:58:41.937Z,100570.16
2023-03-11T21:01:12.684Z,100575.56
2023-03-11T21:03:39.493Z,100576.59
2023-03-11T21:06:13.262Z,100571.63
2023-03-11T21:08:41.244Z,100577.75
2023-03-11T21:11:07.908Z,100574.06
2023-03-11T21:13:34.654Z,100564.75
2023-03-11T21:16:02.042Z,100544.56
2023-03-11T21:18:28.781Z,100576.56
2023-03-11T21:20:55.478Z,100583.63
2023-03-11T21:23:22.502Z,100582.97
2023-03-11T21:25:57.596Z,100587.56
2023-03-11T21:28:24.443Z,100587.75
2023-03-11T21:30:57.277Z,100584.22
2023-03-11T21:33:24.241Z,100574.84
2023-03-11T21:35:52.949Z,100569.81
2023-03-11T21:38:19.733Z,100575.09
2023-03-11T21:40:46.600Z,100575.09
2023-03-11T21:43:14.852Z,100550.91
2023-03-11T21:45:42.193Z,100519.34
2023-03-11T21:48:09.604Z,100575.88
2023-03-11T21:50:37.774Z,100573.41
2023-03-11T21:53:04.501Z,100569.19
2023-03-11T21:55:34.572Z,100571.13
2023-03-11T21:58:01.375Z,100528.91
2023-03-11T22:00:29.366Z,100551.63
2023-03-11T22:02:56.767Z,100570.19
2023-03-11T22:05:23.459Z,100539.84
2023-03-11T22:07:50.255Z,100561.72
2023-03-11T22:10:17.378Z,100551.66
2023-03-11T22:12:44.174Z,100538.97
2023-03-11T22:15:11.526Z,100565.25
2023-03-11T22:17:39.699Z,100516.44
2023-03-11T22:20:07.458Z,100544.25
2023-03-11T22:22:34.572Z,100541.72
2023-03-11T22:25:01.232Z,100545.97
2023-03-11T22:27:27.871Z,100556.69
2023-03-11T22:29:54.392Z,100562.75
2023-03-11T22:32:21.031Z,100559.31
2023-03-11T22:34:49.176Z,100557.41
2023-03-11T22:37:15.829Z,100556.59
2023-03-11T22:39:42.379Z,100538.97
2023-03-11T22:42:09.359Z,100563.41
2023-03-11T22:44:35.917Z,100557.50
2023-03-11T22:47:02.690Z,100560.78
2023-03-11T22:49:29.445Z,100563.38
2023-03-11T22:51:57.469Z,100564.88
2023-03-11T22:54:24.627Z,100566.38
2023-03-11T22:56:51.313Z,100546.84
2023-03-11T22:59:18.150Z,100566.91
2023-03-11T23:01:44.773Z,100568.59
2023-03-11T23:04:11.477Z,100570.09
2023-03-11T23:06:38.263Z,100545.66
2023-03-11T23:09:06.253Z,100560.72
2023-03-11T23:11:32.926Z,100564.84
2023-03-11T23:13:59.519Z,100499.00
2023-03-11T23:16:26.353Z,100542.00
2023-03-11T23:18:54.479Z,100520.63
2023-03-11T23:21:23.086Z,100567.84
2023-03-11T23:23:50.290Z,100569.69
2023-03-11T23:26:19.525Z,100558.09
2023-03-11T23:28:53.084Z,100517.69
2023-03-11T23:31:22.015Z,100564.00
2023-03-11T23:33:49.009Z,100514.69
2023-03-11T23:36:17.942Z,100560.38
2023-03-11T23:38:45.621Z,100553.31
2023-03-11T23:41:14.860Z,100556.69
2023-03-11T23:43:43.760Z,100563.50
2023-03-11T23:46:10.780Z,100568.69
2023-03-11T23:48:38.456Z,100555.53
2023-03-11T23:51:05.499Z,100536.94
2023-03-11T23:53:32.617Z,100522.63
2023-03-11T23:55:59.557Z,100552.75
2023-03-11T23:58:27.465Z,100546.53
